createdAt,value
2022-07-26T00:01:02.490Z,31.86
2022-07-26T00:03:30.531Z,32.06
2022-07-26T00:05:59.486Z,32.11
2022-07-26T00:08:27.864Z,32.14
2022-07-26T00:10:56.555Z,32.23
2022-07-26T00:13:24.781Z,32.18
2022-07-26T00:15:58.332Z,32.09
2022-07-26T00:18:26.895Z,32.19
2022-07-26T00:20:55.633Z,32.31
2022-07-26T00:23:23.622Z,32.35
2022-07-26T00:25:51.660Z,32.42
2022-07-26T00:28:19.811Z,32.43
2022-07-26T00:30:48.382Z,32.41
2022-07-26T00:33:16.518Z,32.28
2022-07-26T00:35:45.014Z,32.51
2022-07-26T00:38:12.873Z,32.58
2022-07-26T00:40:40.994Z,32.47
2022-07-26T00:43:09.263Z,32.58
2022-07-26T00:45:37.656Z,32.59
2022-07-26T00:48:06.382Z,32.63
2022-07-26T00:50:35.001Z,32.64
2022-07-26T00:53:03.267Z,32.64
2022-07-26T00:55:31.866Z,32.75
2022-07-26T00:58:01.913Z,32.73
2022-07-26T01:00:30.336Z,32.80
2022-07-26T01:03:00.599Z,32.89
2022-07-26T01:05:29.457Z,32.78
2022-07-26T01:07:58.237Z,32.94
2022-07-26T01:10:26.440Z,33.05
2022-07-26T01:12:54.391Z,33.26
2022-07-26T01:15:23.614Z,33.39
2022-07-26T01:17:51.514Z,33.56
2022-07-26T01:20:19.739Z,33.74
2022-07-26T01:22:47.912Z,34.08
2022-07-26T01:25:16.238Z,34.24
2022-07-26T01:27:44.371Z,34.27
2022-07-26T01:30:13.237Z,34.67
2022-07-26T01:32:41.438Z,34.86
2022-07-26T01:35:10.614Z,35.10
2022-07-26T01:37:38.889Z,35.15
2022-07-26T01:40:07.434Z,35.40
2022-07-26T01:42:40.775Z,35.45
2022-07-26T01:45:10.033Z,35.52
2022-07-26T01:47:39.078Z,35.54
2022-07-26T01:50:08.760Z,35.50
2022-07-26T01:52:37.419Z,35.56
2022-07-26T01:55:05.772Z,35.73
2022-07-26T01:57:34.136Z,35.69
2022-07-26T02:00:02.188Z,35.71
2022-07-26T02:02:35.398Z,35.89
2022-07-26T02:05:04.626Z,35.90
2022-07-26T02:07:43.071Z,35.96
2022-07-26T02:10:14.708Z,35.93
2022-07-26T02:12:43.086Z,36.03
2022-07-26T02:15:14.600Z,36.15
2022-07-26T02:17:43.592Z,36.22
2022-07-26T02:20:11.664Z,36.27
2022-07-26T02:22:39.988Z,36.33
2022-07-26T02:25:08.517Z,36.38
2022-07-26T02:27:36.469Z,36.29
2022-07-26T02:30:04.972Z,36.46
2022-07-26T02:32:33.520Z,36.54
2022-07-26T02:35:02.160Z,36.58
2022-07-26T02:37:30.755Z,36.68
2022-07-26T02:40:04.411Z,36.83
2022-07-26T02:42:32.872Z,36.89
2022-07-26T02:45:00.871Z,36.89
2022-07-26T02:47:29.229Z,36.85
2022-07-26T02:49:57.159Z,36.91
2022-07-26T02:52:25.088Z,36.99
2022-07-26T02:54:53.309Z,37.03
2022-07-26T02:57:21.493Z,37.06
2022-07-26T02:59:49.358Z,37.10
2022-07-26T03:02:17.462Z,37.23
2022-07-26T03:04:45.460Z,37.21
2022-07-26T03:07:14.067Z,37.33
2022-07-26T03:09:42.714Z,37.40
2022-07-26T03:12:10.569Z,37.42
2022-07-26T03:14:38.643Z,37.45
2022-07-26T03:17:06.715Z,37.45
2022-07-26T03:19:34.786Z,37.48
2022-07-26T03:22:02.927Z,37.55
2022-07-26T03:24:30.890Z,37.51
2022-07-26T03:26:59.066Z,37.47
2022-07-26T03:29:27.079Z,37.37
2022-07-26T03:31:55.433Z,37.37
2022-07-26T03:34:23.697Z,37.49
2022-07-26T03:36:52.010Z,37.48
2022-07-26T03:39:20.457Z,37.52
2022-07-26T03:41:48.641Z,37.66
2022-07-26T03:44:16.788Z,37.48
2022-07-26T03:46:45.100Z,37.54
2022-07-26T03:49:16.613Z,37.54
2022-07-26T03:51:45.556Z,37.65
2022-07-26T03:54:13.575Z,37.59
2022-07-26T03:56:41.891Z,37.76
2022-07-26T03:59:11.329Z,37.61
2022-07-26T04:01:43.817Z,37.69
2022-07-26T04:04:13.759Z,37.65
2022-07-26T04:06:42.045Z,37.62
2022-07-26T04:09:11.845Z,37.67
2022-07-26T04:11:40.545Z,37.71
2022-07-26T04:14:09.237Z,37.64
2022-07-26T04:16:42.963Z,37.75
2022-07-26T04:19:11.641Z,37.68
2022-07-26T04:21:40.186Z,37.54
2022-07-26T04:24:08.635Z,37.38
2022-07-26T04:26:37.073Z,37.16
2022-07-26T04:29:05.002Z,36.89
2022-07-26T04:31:36.517Z,36.53
2022-07-26T04:34:05.113Z,36.30
2022-07-26T04:36:33.811Z,35.55
2022-07-26T04:39:02.078Z,34.92
2022-07-26T04:41:30.502Z,34.48
2022-07-26T04:43:58.354Z,34.09
2022-07-26T04:46:26.492Z,33.75
2022-07-26T04:48:55.097Z,33.37
2022-07-26T04:51:23.126Z,33.05
2022-07-26T04:53:51.474Z,32.76
2022-07-26T04:56:19.611Z,32.31
2022-07-26T04:58:48.147Z,31.97
2022-07-26T05:01:16.489Z,31.77
2022-07-26T05:03:44.558Z,31.55
2022-07-26T05:06:12.586Z,31.10
2022-07-26T05:08:43.233Z,31.26
2022-07-26T05:11:11.563Z,31.01
2022-07-26T05:13:39.714Z,31.03
2022-07-26T05:16:11.651Z,30.64
2022-07-26T05:18:49.285Z,30.60
2022-07-26T05:21:18.875Z,30.40
2022-07-26T05:23:46.920Z,30.25
2022-07-26T05:26:15.698Z,30.44
2022-07-26T05:28:44.076Z,30.33
2022-07-26T05:31:12.397Z,30.41
2022-07-26T05:33:40.458Z,30.48
2022-07-26T05:36:08.842Z,30.23
2022-07-26T05:38:37.613Z,30.06
2022-07-26T05:41:05.967Z,29.85
2022-07-26T05:43:40.582Z,29.93
2022-07-26T05:46:13.676Z,30.02
2022-07-26T05:48:42.638Z,29.95
2022-07-26T05:51:11.385Z,29.71
2022-07-26T05:53:40.076Z,29.57
2022-07-26T05:56:08.560Z,29.44
2022-07-26T05:58:36.916Z,29.28
2022-07-26T06:01:05.128Z,29.26
2022-07-26T06:03:33.394Z,28.85
2022-07-26T06:06:01.332Z,28.39
2022-07-26T06:08:29.762Z,28.44
2022-07-26T06:10:57.898Z,28.52
2022-07-26T06:13:25.924Z,28.15
2022-07-26T06:15:54.457Z,28.17
2022-07-26T06:18:22.873Z,27.86
2022-07-26T06:20:52.280Z,27.97
2022-07-26T06:23:31.871Z,28.20
2022-07-26T06:26:03.953Z,27.95
2022-07-26T06:28:33.184Z,27.69
2022-07-26T06:31:01.846Z,27.71
2022-07-26T06:33:30.179Z,27.47
2022-07-26T06:35:59.518Z,27.14
2022-07-26T06:38:27.934Z,27.18
2022-07-26T06:40:56.057Z,27.05
2022-07-26T06:43:23.950Z,26.91
2022-07-26T06:45:52.229Z,26.88
2022-07-26T06:48:20.280Z,26.70
2022-07-26T06:50:48.749Z,26.60
2022-07-26T06:53:16.898Z,26.22
2022-07-26T06:55:45.156Z,26.26
2022-07-26T06:58:14.288Z,25.88
2022-07-26T07:00:42.543Z,25.56
2022-07-26T07:03:10.489Z,25.59
2022-07-26T07:05:38.621Z,25.74
2022-07-26T07:08:07.403Z,25.47
2022-07-26T07:10:36.125Z,25.10
2022-07-26T07:13:04.418Z,24.54
2022-07-26T07:15:33.187Z,23.96
2022-07-26T07:18:01.758Z,23.66
2022-07-26T07:20:30.186Z,22.93
2022-07-26T07:22:58.702Z,22.38
2022-07-26T07:25:30.732Z,22.53
2022-07-26T07:27:59.616Z,21.78
2022-07-26T07:30:28.067Z,21.71
2022-07-26T07:32:56.667Z,21.35
2022-07-26T07:35:25.107Z,21.11
2022-07-26T07:38:00.649Z,20.98
2022-07-26T07:40:30.511Z,20.72
2022-07-26T07:42:59.303Z,20.13
2022-07-26T07:45:27.400Z,20.04
2022-07-26T07:47:56.029Z,19.46
2022-07-26T07:50:28.471Z,19.06
2022-07-26T07:52:59.279Z,18.83
2022-07-26T07:55:44.033Z,18.35
2022-07-26T07:58:17.224Z,18.22
2022-07-26T08:00:48.140Z,18.14
2022-07-26T08:03:18.647Z,17.66
2022-07-26T08:05:49.657Z,17.30
2022-07-26T08:08:22.063Z,17.14
2022-07-26T08:10:52.757Z,17.03
2022-07-26T08:13:22.477Z,16.40
2022-07-26T08:15:51.544Z,16.40
2022-07-26T08:18:22.581Z,16.17
2022-07-26T08:20:52.594Z,16.09
2022-07-26T08:23:21.714Z,16.30
2022-07-26T08:26:00.661Z,16.04
2022-07-26T08:28:48.340Z,15.91
2022-07-26T08:31:17.265Z,15.73
2022-07-26T08:33:46.871Z,15.39
2022-07-26T08:36:17.291Z,15.36
2022-07-26T08:38:47.096Z,15.08
2022-07-26T08:41:18.243Z,15.14
2022-07-26T08:43:52.102Z,15.25
2022-07-26T08:46:25.944Z,15.71
2022-07-26T08:48:56.773Z,15.67
2022-07-26T08:51:26.466Z,16.04
2022-07-26T08:54:04.696Z,16.08
2022-07-26T08:56:36.071Z,15.88
2022-07-26T08:59:20.193Z,16.00
2022-07-26T09:02:00.674Z,16.06
2022-07-26T09:04:33.192Z,15.66
2022-07-26T09:07:17.664Z,15.40
2022-07-26T09:10:01.286Z,15.20
2022-07-26T09:12:30.940Z,15.12
2022-07-26T09:15:01.313Z,15.08
2022-07-26T09:17:41.961Z,15.61
2022-07-26T09:20:24.250Z,15.53
2022-07-26T09:23:07.587Z,15.36
2022-07-26T09:25:41.054Z,15.54
2022-07-26T09:28:22.941Z,15.67
2022-07-26T09:30:56.972Z,15.46
2022-07-26T09:33:25.377Z,15.48
2022-07-26T09:36:21.970Z,15.05
2022-07-26T09:38:56.229Z,15.27
2022-07-26T09:41:37.099Z,15.30
2022-07-26T09:44:08.563Z,15.40
2022-07-26T09:47:00.310Z,15.18
2022-07-26T09:49:40.605Z,15.11
2022-07-26T09:52:17.281Z,15.11
2022-07-26T09:54:47.666Z,15.58
2022-07-26T09:57:18.481Z,15.37
2022-07-26T09:59:47.778Z,15.10
2022-07-26T10:02:16.116Z,14.98
2022-07-26T10:04:44.484Z,14.55
2022-07-26T10:07:12.566Z,14.60
2022-07-26T10:09:54.919Z,14.77
2022-07-26T10:12:30.430Z,14.84
2022-07-26T10:14:58.640Z,14.41
2022-07-26T10:17:31.488Z,14.21
2022-07-26T10:20:09.331Z,14.22
2022-07-26T10:22:50.737Z,14.27
2022-07-26T10:25:19.055Z,14.04
2022-07-26T10:27:51.850Z,14.02
2022-07-26T10:30:20.213Z,14.25
2022-07-26T10:32:51.394Z,14.08
2022-07-26T10:35:40.407Z,14.13
2022-07-26T10:38:18.454Z,13.98
2022-07-26T10:41:00.639Z,13.87
2022-07-26T10:43:40.782Z,13.67
2022-07-26T10:46:18.823Z,13.96
2022-07-26T10:49:07.783Z,13.93
2022-07-26T10:51:38.365Z,14.05
2022-07-26T10:54:10.815Z,13.94
2022-07-26T10:56:39.894Z,13.92
2022-07-26T10:59:08.057Z,13.59
2022-07-26T11:01:38.005Z,13.25
2022-07-26T11:04:07.955Z,13.67
2022-07-26T11:06:36.491Z,13.80
2022-07-26T11:09:11.493Z,13.93
2022-07-26T11:11:39.930Z,14.04
2022-07-26T11:14:18.114Z,13.98
2022-07-26T11:16:50.962Z,13.58
2022-07-26T11:19:27.593Z,13.36
2022-07-26T11:22:01.562Z,13.61
2022-07-26T11:24:29.573Z,13.62
2022-07-26T11:27:03.505Z,13.50
2022-07-26T11:29:38.203Z,13.48
2022-07-26T11:32:18.150Z,13.36
2022-07-26T11:34:47.206Z,13.43
2022-07-26T11:37:15.330Z,13.55
2022-07-26T11:39:44.055Z,13.69
2022-07-26T11:42:15.193Z,13.71
2022-07-26T11:44:44.977Z,13.55
2022-07-26T11:47:20.296Z,13.02
2022-07-26T11:50:00.015Z,13.03
2022-07-26T11:52:32.053Z,12.99
2022-07-26T11:55:00.739Z,12.82
2022-07-26T11:57:31.189Z,12.83
2022-07-26T12:00:00.509Z,12.68
2022-07-26T12:02:40.336Z,12.80
2022-07-26T12:05:18.844Z,12.93
2022-07-26T12:07:56.357Z,13.22
2022-07-26T12:10:25.161Z,13.23
2022-07-26T12:13:12.872Z,13.17
2022-07-26T12:15:48.760Z,12.98
2022-07-26T12:18:30.880Z,12.96
2022-07-26T12:21:07.228Z,13.09
2022-07-26T12:23:49.880Z,13.08
2022-07-26T12:26:30.761Z,13.19
2022-07-26T12:29:21.974Z,13.11
2022-07-26T12:32:12.753Z,12.74
2022-07-26T12:34:55.528Z,12.76
2022-07-26T12:37:33.686Z,12.13
2022-07-26T12:40:12.010Z,12.06
2022-07-26T12:42:44.257Z,12.33
2022-07-26T12:45:13.775Z,12.18
2022-07-26T12:47:44.573Z,12.22
2022-07-26T12:50:13.877Z,12.25
2022-07-26T12:52:42.299Z,12.49
2022-07-26T12:55:16.386Z,12.67
2022-07-26T12:57:47.645Z,12.51
2022-07-26T13:00:18.615Z,12.05
2022-07-26T13:02:47.769Z,12.40
2022-07-26T13:05:15.903Z,12.27
2022-07-26T13:07:43.970Z,12.20
2022-07-26T13:13:00.775Z,11.86
2022-07-26T13:15:35.270Z,12.30
2022-07-26T13:18:08.374Z,12.27
2022-07-26T13:20:38.730Z,12.50
2022-07-26T13:23:13.840Z,12.53
2022-07-26T13:25:43.889Z,12.42
2022-07-26T13:28:11.943Z,12.25
2022-07-26T13:30:43.169Z,11.77
2022-07-26T13:33:11.903Z,11.78
2022-07-26T13:35:42.751Z,11.77
2022-07-26T13:38:11.324Z,11.64
2022-07-26T13:40:39.761Z,11.83
2022-07-26T13:43:07.960Z,11.75
2022-07-26T13:45:35.923Z,12.17
2022-07-26T13:48:04.005Z,11.71
2022-07-26T13:50:31.862Z,11.52
2022-07-26T13:53:00.082Z,11.58
2022-07-26T13:55:28.278Z,12.09
2022-07-26T13:57:57.880Z,12.12
2022-07-26T14:00:28.803Z,12.03
2022-07-26T14:02:58.770Z,12.05
2022-07-26T14:05:28.061Z,12.11
2022-07-26T14:07:57.962Z,12.57
2022-07-26T14:10:26.393Z,12.34
2022-07-26T14:12:54.667Z,12.25
2022-07-26T14:15:23.716Z,12.36
2022-07-26T14:17:52.801Z,12.54
2022-07-26T14:20:21.687Z,12.76
2022-07-26T14:22:53.756Z,12.76
2022-07-26T14:25:26.563Z,12.71
2022-07-26T14:27:55.815Z,13.20
2022-07-26T14:30:24.186Z,13.04
2022-07-26T14:32:52.136Z,13.21
2022-07-26T14:35:20.077Z,13.44
2022-07-26T14:37:48.286Z,13.48
2022-07-26T14:40:17.711Z,13.61
2022-07-26T14:42:46.767Z,13.63
2022-07-26T14:45:15.038Z,13.67
2022-07-26T14:47:43.536Z,13.35
2022-07-26T14:50:14.073Z,13.47
2022-07-26T14:52:45.135Z,13.65
2022-07-26T14:55:15.317Z,13.63
2022-07-26T14:57:43.688Z,13.77
2022-07-26T15:00:16.971Z,13.99
2022-07-26T15:02:48.172Z,13.85
2022-07-26T15:05:17.848Z,13.84
2022-07-26T15:07:46.413Z,13.77
2022-07-26T15:10:15.210Z,13.50
2022-07-26T15:12:44.145Z,13.48
2022-07-26T15:15:12.266Z,13.61
2022-07-26T15:17:40.879Z,13.57
2022-07-26T15:20:09.061Z,13.55
2022-07-26T15:22:37.163Z,13.60
2022-07-26T15:25:05.602Z,13.85
2022-07-26T15:27:33.868Z,13.61
2022-07-26T15:30:04.972Z,13.54
2022-07-26T15:32:36.836Z,13.73
2022-07-26T15:35:05.760Z,13.72
2022-07-26T15:37:34.406Z,13.88
2022-07-26T15:40:02.570Z,13.75
2022-07-26T15:42:31.881Z,14.07
2022-07-26T15:44:59.917Z,14.40
2022-07-26T15:47:53.019Z,14.58
2022-07-26T15:50:19.126Z,14.87
2022-07-26T15:52:48.761Z,15.07
2022-07-26T15:55:19.319Z,15.17
2022-07-26T15:57:47.669Z,15.24
2022-07-26T16:00:16.443Z,15.49
2022-07-26T16:02:44.814Z,15.46
2022-07-26T16:05:12.764Z,15.96
2022-07-26T16:07:42.051Z,16.17
2022-07-26T16:10:12.398Z,19.02
2022-07-26T16:12:42.041Z,21.20
2022-07-26T16:15:11.339Z,22.08
2022-07-26T16:17:40.166Z,23.15
2022-07-26T16:20:09.872Z,24.10
2022-07-26T16:22:41.369Z,25.07
2022-07-26T16:25:13.198Z,25.59
2022-07-26T16:27:43.143Z,26.09
2022-07-26T16:30:13.440Z,26.58
2022-07-26T16:32:42.479Z,27.14
2022-07-26T16:35:11.034Z,27.62
2022-07-26T16:37:40.077Z,28.02
2022-07-26T16:40:09.509Z,28.22
2022-07-26T16:42:37.334Z,28.70
2022-07-26T16:45:06.033Z,29.08
2022-07-26T16:47:33.995Z,29.42
2022-07-26T16:50:02.695Z,29.92
2022-07-26T16:52:30.661Z,30.20
2022-07-26T16:55:00.410Z,30.81
2022-07-26T16:57:28.839Z,31.02
2022-07-26T16:59:56.954Z,31.40
2022-07-26T17:02:25.037Z,31.53
2022-07-26T17:04:56.073Z,31.93
2022-07-26T17:07:25.788Z,32.59
2022-07-26T17:09:57.045Z,33.17
2022-07-26T17:12:25.367Z,33.42
2022-07-26T17:14:53.574Z,33.58
2022-07-26T17:17:21.789Z,33.75
2022-07-26T17:19:50.500Z,34.54
2022-07-26T17:22:19.317Z,35.14
2022-07-26T17:24:48.322Z,35.50
2022-07-26T17:27:17.195Z,35.72
2022-07-26T17:29:45.472Z,35.86
2022-07-26T17:32:13.830Z,35.91
2022-07-26T17:34:42.279Z,36.05
2022-07-26T17:37:10.695Z,36.25
2022-07-26T17:39:51.746Z,36.51
2022-07-26T17:42:22.776Z,36.68
2022-07-26T17:44:51.430Z,36.72
2022-07-26T17:47:28.448Z,36.65
2022-07-26T17:52:51.521Z,36.81
2022-07-26T17:55:20.556Z,36.63
2022-07-26T17:57:49.935Z,36.69
2022-07-26T18:00:21.017Z,36.92
2022-07-26T18:02:49.599Z,36.90
2022-07-26T18:05:19.099Z,36.73
2022-07-26T18:07:47.501Z,36.84
2022-07-26T18:10:16.073Z,36.89
2022-07-26T18:12:44.430Z,37.17
2022-07-26T18:15:12.986Z,37.18
2022-07-26T18:17:41.108Z,37.23
2022-07-26T18:20:10.046Z,37.40
2022-07-26T18:22:38.446Z,37.27
2022-07-26T18:25:07.724Z,37.35
2022-07-26T18:27:35.991Z,37.23
2022-07-26T18:30:05.457Z,37.24
2022-07-26T18:32:34.949Z,37.57
2022-07-26T18:35:03.518Z,38.04
2022-07-26T18:37:31.790Z,38.19
2022-07-26T18:40:00.181Z,38.83
2022-07-26T18:42:28.174Z,40.01
2022-07-26T18:44:56.227Z,41.54
2022-07-26T18:47:24.783Z,41.95
2022-07-26T18:49:52.621Z,42.26
2022-07-26T18:52:28.422Z,42.52
2022-07-26T18:55:12.261Z,43.09
2022-07-26T18:57:42.508Z,43.12
2022-07-26T19:00:17.590Z,42.99
2022-07-26T19:02:47.063Z,42.80
2022-07-26T19:05:16.836Z,43.00
2022-07-26T19:07:46.194Z,43.31
2022-07-26T19:10:15.194Z,43.47
2022-07-26T19:12:46.353Z,42.86
2022-07-26T19:15:17.150Z,42.85
2022-07-26T19:17:45.506Z,42.35
2022-07-26T19:20:13.978Z,42.90
2022-07-26T19:22:44.985Z,42.97
2022-07-26T19:25:14.778Z,43.37
2022-07-26T19:27:43.829Z,43.09
2022-07-26T19:30:12.588Z,43.03
2022-07-26T19:32:40.791Z,43.12
2022-07-26T19:35:09.757Z,43.24
2022-07-26T19:37:37.769Z,43.16
2022-07-26T19:40:06.456Z,43.24
2022-07-26T19:42:34.639Z,43.39
2022-07-26T19:45:02.510Z,43.52
2022-07-26T19:47:31.021Z,43.77
2022-07-26T19:49:59.334Z,44.16
2022-07-26T19:52:28.022Z,44.31
2022-07-26T19:54:56.771Z,44.34
2022-07-26T19:57:24.918Z,44.87
2022-07-26T19:59:54.638Z,45.51
2022-07-26T20:02:23.217Z,46.44
2022-07-26T20:04:51.338Z,47.03
2022-07-26T20:07:19.965Z,47.03
2022-07-26T20:09:49.616Z,47.32
2022-07-26T20:12:19.727Z,47.60
2022-07-26T20:14:47.988Z,48.07
2022-07-26T20:17:16.663Z,48.41
2022-07-26T20:19:44.882Z,48.44
2022-07-26T20:22:13.064Z,48.80
2022-07-26T20:24:41.024Z,49.02
2022-07-26T20:27:09.138Z,49.09
2022-07-26T20:29:37.217Z,49.35
2022-07-26T20:32:06.027Z,49.92
2022-07-26T20:34:35.241Z,51.84
2022-07-26T20:37:03.264Z,53.68
2022-07-26T20:39:31.385Z,54.24
2022-07-26T20:41:59.531Z,54.15
2022-07-26T20:44:29.962Z,54.55
2022-07-26T20:46:57.920Z,54.64
2022-07-26T20:49:26.399Z,54.67
2022-07-26T20:51:54.683Z,55.23
2022-07-26T20:54:22.769Z,54.94
2022-07-26T20:56:51.097Z,54.79
2022-07-26T20:59:19.274Z,55.73
2022-07-26T21:01:47.627Z,55.25
2022-07-26T21:04:15.854Z,55.80
2022-07-26T21:06:44.200Z,55.63
2022-07-26T21:09:12.640Z,55.68
2022-07-26T21:11:40.858Z,56.06
2022-07-26T21:14:08.881Z,55.57
2022-07-26T21:16:37.247Z,55.20
2022-07-26T21:19:06.033Z,54.67
2022-07-26T21:21:36.448Z,55.75
2022-07-26T21:24:06.378Z,56.02
2022-07-26T21:26:35.219Z,56.07
2022-07-26T21:29:03.728Z,56.00
2022-07-26T21:31:32.079Z,55.85
2022-07-26T21:34:00.069Z,55.48
2022-07-26T21:36:28.621Z,55.57
2022-07-26T21:38:56.690Z,55.30
2022-07-26T21:41:24.587Z,55.35
2022-07-26T21:43:53.150Z,55.66
2022-07-26T21:46:21.350Z,56.05
2022-07-26T21:48:49.747Z,56.33
2022-07-26T21:51:17.719Z,56.62
2022-07-26T21:53:45.842Z,56.74
2022-07-26T21:56:14.061Z,56.88
2022-07-26T21:58:42.405Z,57.11
2022-07-26T22:01:12.543Z,57.08
2022-07-26T22:03:42.058Z,57.10
2022-07-26T22:06:10.534Z,57.71
2022-07-26T22:08:38.929Z,58.40
2022-07-26T22:11:06.847Z,58.93
2022-07-26T22:13:35.295Z,59.52
2022-07-26T22:16:03.742Z,59.98
2022-07-26T22:18:31.995Z,60.33
2022-07-26T22:21:01.096Z,60.46
2022-07-26T22:23:32.180Z,60.18
2022-07-26T22:26:02.189Z,59.67
2022-07-26T22:28:31.204Z,59.61
2022-07-26T22:30:59.637Z,59.73
2022-07-26T22:33:27.722Z,60.09
2022-07-26T22:35:55.965Z,59.80
2022-07-26T22:38:24.392Z,59.54
2022-07-26T22:40:52.473Z,59.15
2022-07-26T22:43:21.040Z,58.92
2022-07-26T22:45:48.993Z,58.82
2022-07-26T22:48:17.509Z,58.70
2022-07-26T22:50:45.608Z,58.52
2022-07-26T22:53:13.478Z,58.28
2022-07-26T22:55:42.154Z,58.28
2022-07-26T22:58:10.300Z,58.17
2022-07-26T23:00:38.576Z,58.27
2022-07-26T23:03:09.701Z,58.36
2022-07-26T23:05:49.373Z,58.42
2022-07-26T23:08:45.068Z,58.64
2022-07-26T23:11:07.008Z,58.85
2022-07-26T23:13:35.121Z,58.85
2022-07-26T23:16:03.660Z,58.77
2022-07-26T23:18:33.414Z,58.86
2022-07-26T23:21:03.871Z,58.86
2022-07-26T23:23:32.270Z,58.89
2022-07-26T23:26:00.682Z,58.66
2022-07-26T23:28:37.187Z,58.98
2022-07-26T23:31:07.951Z,58.82
2022-07-26T23:33:52.702Z,58.96
2022-07-26T23:36:27.919Z,58.80
2022-07-26T23:38:58.032Z,58.92
2022-07-26T23:41:27.423Z,58.68
2022-07-26T23:43:56.335Z,58.46
2022-07-26T23:46:25.248Z,58.32
2022-07-26T23:48:54.801Z,58.49
2022-07-26T23:51:25.948Z,58.71
2022-07-26T23:53:54.827Z,58.82
2022-07-26T23:56:23.239Z,59.01
2022-07-26T23:58:51.423Z,58.90
